sensor_id;sensor_type;location;lat;lon;timestamp;temperature;humidity
7117;DHT22;3600;48.568;7.870;2023-05-21T00:01:19;16.00;99.90
7117;DHT22;3600;48.568;7.870;2023-05-21T00:03:45;16.00;99.90
7117;DHT22;3600;48.568;7.870;2023-05-21T00:06:13;16.10;99.90
7117;DHT22;3600;48.568;7.870;2023-05-21T00:08:41;16.00;99.90
7117;DHT22;3600;48.568;7.870;2023-05-21T00:11:08;16.00;99.90
7117;DHT22;3600;48.568;7.870;2023-05-21T00:13:35;16.00;99.90
7117;DHT22;3600;48.568;7.870;2023-05-21T00:16:02;16.00;99.90
7117;DHT22;3600;48.568;7.870;2023-05-21T00:18:29;16.10;99.90
7117;DHT22;3600;48.568;7.870;2023-05-21T00:20:58;16.00;99.90
7117;DHT22;3600;48.568;7.870;2023-05-21T00:23:24;16.00;99.90
7117;DHT22;3600;48.568;7.870;2023-05-21T00:25:52;15.90;99.90
7117;DHT22;3600;48.568;7.870;2023-05-21T00:28:19;16.00;99.90
7117;DHT22;3600;48.568;7.870;2023-05-21T00:30:46;16.10;99.90
7117;DHT22;3600;48.568;7.870;2023-05-21T00:33:12;16.00;99.90
7117;DHT22;3600;48.568;7.870;2023-05-21T00:35:40;15.90;99.90
7117;DHT22;3600;48.568;7.870;2023-05-21T00:38:07;15.80;99.90
7117;DHT22;3600;48.568;7.870;2023-05-21T00:40:34;15.90;99.90
7117;DHT22;3600;48.568;7.870;2023-05-21T00:43:01;15.80;99.90
7117;DHT22;3600;48.568;7.870;2023-05-21T00:45:29;15.80;99.90
7117;DHT22;3600;48.568;7.870;2023-05-21T00:47:56;15.80;99.90
7117;DHT22;3600;48.568;7.870;2023-05-21T00:50:23;15.70;99.90
7117;DHT22;3600;48.568;7.870;2023-05-21T00:52:51;15.60;99.90
7117;DHT22;3600;48.568;7.870;2023-05-21T00:55:18;15.70;99.90
7117;DHT22;3600;48.568;7.870;2023-05-21T00:57:46;15.60;99.90
7117;DHT22;3600;48.568;7.870;2023-05-21T01:00:13;15.50;99.90
7117;DHT22;3600;48.568;7.870;2023-05-21T01:02:41;15.60;99.90
7117;DHT22;3600;48.568;7.870;2023-05-21T01:07:49;15.50;99.90
7117;DHT22;3600;48.568;7.870;2023-05-21T01:10:16;15.40;99.90
7117;DHT22;3600;48.568;7.870;2023-05-21T01:12:43;15.30;99.90
7117;DHT22;3600;48.568;7.870;2023-05-21T01:15:11;15.40;99.90
7117;DHT22;3600;48.568;7.870;2023-05-21T01:17:38;15.40;99.90
7117;DHT22;3600;48.568;7.870;2023-05-21T01:20:06;15.40;99.90
7117;DHT22;3600;48.568;7.870;2023-05-21T01:25:09;15.30;99.90
7117;DHT22;3600;48.568;7.870;2023-05-21T01:27:36;15.30;99.90
7117;DHT22;3600;48.568;7.870;2023-05-21T01:30:03;15.40;99.90
7117;DHT22;3600;48.568;7.870;2023-05-21T01:35:25;15.40;99.90
7117;DHT22;3600;48.568;7.870;2023-05-21T01:38:04;15.20;99.90
7117;DHT22;3600;48.568;7.870;2023-05-21T01:43:32;15.30;99.90
7117;DHT22;3600;48.568;7.870;2023-05-21T01:46:00;15.10;99.90
7117;DHT22;3600;48.568;7.870;2023-05-21T01:48:28;15.10;99.90
7117;DHT22;3600;48.568;7.870;2023-05-21T01:50:59;15.10;99.90
7117;DHT22;3600;48.568;7.870;2023-05-21T01:53:27;15.10;99.90
7117;DHT22;3600;48.568;7.870;2023-05-21T01:55:54;15.10;99.90
7117;DHT22;3600;48.568;7.870;2023-05-21T01:58:21;15.00;99.90
7117;DHT22;3600;48.568;7.870;2023-05-21T02:00:49;15.10;99.90
7117;DHT22;3600;48.568;7.870;2023-05-21T02:03:25;15.10;99.90
7117;DHT22;3600;48.568;7.870;2023-05-21T02:05:52;14.90;99.90
7117;DHT22;3600;48.568;7.870;2023-05-21T02:08:21;14.90;99.90
7117;DHT22;3600;48.568;7.870;2023-05-21T02:10:49;14.80;99.90
7117;DHT22;3600;48.568;7.870;2023-05-21T02:13:16;14.80;99.90
7117;DHT22;3600;48.568;7.870;2023-05-21T02:15:48;14.70;99.90
7117;DHT22;3600;48.568;7.870;2023-05-21T02:18:15;14.70;99.90
7117;DHT22;3600;48.568;7.870;2023-05-21T02:20:42;14.70;99.90
7117;DHT22;3600;48.568;7.870;2023-05-21T02:23:09;14.60;99.90
7117;DHT22;3600;48.568;7.870;2023-05-21T02:25:36;14.60;99.90
7117;DHT22;3600;48.568;7.870;2023-05-21T02:28:03;14.60;99.90
7117;DHT22;3600;48.568;7.870;2023-05-21T02:30:30;14.60;99.90
7117;DHT22;3600;48.568;7.870;2023-05-21T02:32:57;14.60;99.90
7117;DHT22;3600;48.568;7.870;2023-05-21T02:35:24;14.50;99.90
7117;DHT22;3600;48.568;7.870;2023-05-21T02:37:51;14.50;99.90
7117;DHT22;3600;48.568;7.870;2023-05-21T02:40:18;14.50;99.90
7117;DHT22;3600;48.568;7.870;2023-05-21T02:42:44;14.50;99.90
7117;DHT22;3600;48.568;7.870;2023-05-21T02:45:11;14.60;99.90
7117;DHT22;3600;48.568;7.870;2023-05-21T02:47:38;14.70;99.90
7117;DHT22;3600;48.568;7.870;2023-05-21T02:50:07;14.80;99.90
7117;DHT22;3600;48.568;7.870;2023-05-21T02:52:34;14.60;99.90
7117;DHT22;3600;48.568;7.870;2023-05-21T02:55:01;14.50;99.90
7117;DHT22;3600;48.568;7.870;2023-05-21T02:57:28;14.50;99.90
7117;DHT22;3600;48.568;7.870;2023-05-21T02:59:54;14.50;99.90
7117;DHT22;3600;48.568;7.870;2023-05-21T03:02:22;14.50;99.90
7117;DHT22;3600;48.568;7.870;2023-05-21T03:04:49;14.60;99.90
7117;DHT22;3600;48.568;7.870;2023-05-21T03:07:16;14.50;99.90
7117;DHT22;3600;48.568;7.870;2023-05-21T03:09:46;14.40;99.90
7117;DHT22;3600;48.568;7.870;2023-05-21T03:12:13;14.40;99.90
7117;DHT22;3600;48.568;7.870;2023-05-21T03:14:40;14.30;99.90
7117;DHT22;3600;48.568;7.870;2023-05-21T03:17:09;14.30;99.90
7117;DHT22;3600;48.568;7.870;2023-05-21T03:19:40;14.30;99.90
7117;DHT22;3600;48.568;7.870;2023-05-21T03:22:07;14.20;99.90
7117;DHT22;3600;48.568;7.870;2023-05-21T03:24:34;14.20;99.90
7117;DHT22;3600;48.568;7.870;2023-05-21T03:27:02;14.20;99.90
7117;DHT22;3600;48.568;7.870;2023-05-21T03:29:29;14.20;99.90
7117;DHT22;3600;48.568;7.870;2023-05-21T03:31:56;14.20;99.90
7117;DHT22;3600;48.568;7.870;2023-05-21T03:34:23;14.20;99.90
7117;DHT22;3600;48.568;7.870;2023-05-21T03:36:50;14.20;99.90
7117;DHT22;3600;48.568;7.870;2023-05-21T03:39:17;14.10;99.90
7117;DHT22;3600;48.568;7.870;2023-05-21T03:41:44;14.10;99.90
7117;DHT22;3600;48.568;7.870;2023-05-21T03:44:11;14.10;99.90
7117;DHT22;3600;48.568;7.870;2023-05-21T03:46:37;14.00;99.90
7117;DHT22;3600;48.568;7.870;2023-05-21T03:49:04;14.10;99.90
7117;DHT22;3600;48.568;7.870;2023-05-21T03:51:31;14.10;99.90
7117;DHT22;3600;48.568;7.870;2023-05-21T03:53:58;14.10;99.90
7117;DHT22;3600;48.568;7.870;2023-05-21T03:56:25;14.00;99.90
7117;DHT22;3600;48.568;7.870;2023-05-21T03:58:52;14.00;99.90
7117;DHT22;3600;48.568;7.870;2023-05-21T04:01:19;14.10;99.90
7117;DHT22;3600;48.568;7.870;2023-05-21T04:03:46;14.20;99.90
7117;DHT22;3600;48.568;7.870;2023-05-21T04:06:13;14.30;99.90
7117;DHT22;3600;48.568;7.870;2023-05-21T04:08:41;14.30;99.90
7117;DHT22;3600;48.568;7.870;2023-05-21T04:11:08;14.40;99.90
7117;DHT22;3600;48.568;7.870;2023-05-21T04:13:35;14.40;99.90
7117;DHT22;3600;48.568;7.870;2023-05-21T04:16:01;14.20;99.90
7117;DHT22;3600;48.568;7.870;2023-05-21T04:18:28;14.10;99.90
7117;DHT22;3600;48.568;7.870;2023-05-21T04:20:55;14.00;99.90
7117;DHT22;3600;48.568;7.870;2023-05-21T04:23:22;14.00;99.90
7117;DHT22;3600;48.568;7.870;2023-05-21T04:25:49;14.00;99.90
7117;DHT22;3600;48.568;7.870;2023-05-21T04:28:16;14.00;99.90
7117;DHT22;3600;48.568;7.870;2023-05-21T04:30:48;14.00;99.90
7117;DHT22;3600;48.568;7.870;2023-05-21T04:33:15;14.00;99.90
7117;DHT22;3600;48.568;7.870;2023-05-21T04:35:45;14.00;99.90
7117;DHT22;3600;48.568;7.870;2023-05-21T04:38:16;14.00;99.90
7117;DHT22;3600;48.568;7.870;2023-05-21T04:40:49;14.10;99.90
7117;DHT22;3600;48.568;7.870;2023-05-21T04:43:19;14.20;99.90
7117;DHT22;3600;48.568;7.870;2023-05-21T04:45:52;14.20;99.90
7117;DHT22;3600;48.568;7.870;2023-05-21T04:48:24;14.00;99.90
7117;DHT22;3600;48.568;7.870;2023-05-21T04:50:53;14.00;99.90
7117;DHT22;3600;48.568;7.870;2023-05-21T04:53:22;14.00;99.90
7117;DHT22;3600;48.568;7.870;2023-05-21T04:55:48;14.10;99.90
7117;DHT22;3600;48.568;7.870;2023-05-21T04:58:15;14.00;99.90
7117;DHT22;3600;48.568;7.870;2023-05-21T05:00:45;14.00;99.90
7117;DHT22;3600;48.568;7.870;2023-05-21T05:03:12;14.10;99.90
7117;DHT22;3600;48.568;7.870;2023-05-21T05:05:40;14.20;99.90
7117;DHT22;3600;48.568;7.870;2023-05-21T05:08:07;14.10;99.90
7117;DHT22;3600;48.568;7.870;2023-05-21T05:10:34;14.10;99.90
7117;DHT22;3600;48.568;7.870;2023-05-21T05:13:01;14.20;99.90
7117;DHT22;3600;48.568;7.870;2023-05-21T05:15:28;14.20;99.90
7117;DHT22;3600;48.568;7.870;2023-05-21T05:17:54;14.40;99.90
7117;DHT22;3600;48.568;7.870;2023-05-21T05:20:22;14.30;99.90
7117;DHT22;3600;48.568;7.870;2023-05-21T05:22:48;14.40;99.90
7117;DHT22;3600;48.568;7.870;2023-05-21T05:25:15;14.30;99.90
7117;DHT22;3600;48.568;7.870;2023-05-21T05:27:42;14.30;99.90
7117;DHT22;3600;48.568;7.870;2023-05-21T05:30:09;14.30;99.90
7117;DHT22;3600;48.568;7.870;2023-05-21T05:32:36;14.30;99.90
7117;DHT22;3600;48.568;7.870;2023-05-21T05:35:04;14.30;99.90
7117;DHT22;3600;48.568;7.870;2023-05-21T05:37:31;14.30;99.90
7117;DHT22;3600;48.568;7.870;2023-05-21T05:39:59;14.40;99.90
7117;DHT22;3600;48.568;7.870;2023-05-21T05:42:26;14.40;99.90
7117;DHT22;3600;48.568;7.870;2023-05-21T05:44:52;14.50;99.90
7117;DHT22;3600;48.568;7.870;2023-05-21T05:47:19;14.50;99.90
7117;DHT22;3600;48.568;7.870;2023-05-21T05:49:47;14.50;99.90
7117;DHT22;3600;48.568;7.870;2023-05-21T05:52:14;14.60;99.90
7117;DHT22;3600;48.568;7.870;2023-05-21T05:54:41;14.60;99.90
7117;DHT22;3600;48.568;7.870;2023-05-21T05:57:08;14.60;99.90
7117;DHT22;3600;48.568;7.870;2023-05-21T05:59:35;14.70;99.90
7117;DHT22;3600;48.568;7.870;2023-05-21T06:02:01;14.70;99.90
7117;DHT22;3600;48.568;7.870;2023-05-21T06:04:28;14.70;99.90
7117;DHT22;3600;48.568;7.870;2023-05-21T06:06:55;14.80;99.90
7117;DHT22;3600;48.568;7.870;2023-05-21T06:09:23;14.70;99.90
7117;DHT22;3600;48.568;7.870;2023-05-21T06:11:50;14.80;99.90
7117;DHT22;3600;48.568;7.870;2023-05-21T06:14:17;14.80;99.90
7117;DHT22;3600;48.568;7.870;2023-05-21T06:16:44;14.90;99.90
7117;DHT22;3600;48.568;7.870;2023-05-21T06:19:10;15.00;99.90
7117;DHT22;3600;48.568;7.870;2023-05-21T06:21:37;15.10;99.90
7117;DHT22;3600;48.568;7.870;2023-05-21T06:24:04;15.10;99.90
7117;DHT22;3600;48.568;7.870;2023-05-21T06:26:31;15.30;99.90
7117;DHT22;3600;48.568;7.870;2023-05-21T06:28:58;15.10;99.90
7117;DHT22;3600;48.568;7.870;2023-05-21T06:31:25;15.10;99.90
7117;DHT22;3600;48.568;7.870;2023-05-21T06:33:52;15.40;99.90
7117;DHT22;3600;48.568;7.870;2023-05-21T06:36:19;15.50;99.90
7117;DHT22;3600;48.568;7.870;2023-05-21T06:38:46;15.40;99.90
7117;DHT22;3600;48.568;7.870;2023-05-21T06:41:13;15.50;99.90
7117;DHT22;3600;48.568;7.870;2023-05-21T06:43:40;15.50;99.90
7117;DHT22;3600;48.568;7.870;2023-05-21T06:46:07;15.60;99.90
7117;DHT22;3600;48.568;7.870;2023-05-21T06:48:34;15.70;99.90
7117;DHT22;3600;48.568;7.870;2023-05-21T06:51:00;15.70;99.90
7117;DHT22;3600;48.568;7.870;2023-05-21T06:53:27;15.60;99.90
7117;DHT22;3600;48.568;7.870;2023-05-21T06:55:54;15.70;99.90
7117;DHT22;3600;48.568;7.870;2023-05-21T06:58:20;15.90;99.90
7117;DHT22;3600;48.568;7.870;2023-05-21T07:00:47;15.70;99.90
7117;DHT22;3600;48.568;7.870;2023-05-21T07:03:14;15.60;99.90
7117;DHT22;3600;48.568;7.870;2023-05-21T07:05:42;15.80;99.90
7117;DHT22;3600;48.568;7.870;2023-05-21T07:08:09;16.00;99.90
7117;DHT22;3600;48.568;7.870;2023-05-21T07:10:37;15.90;99.90
7117;DHT22;3600;48.568;7.870;2023-05-21T07:13:04;15.90;99.90
7117;DHT22;3600;48.568;7.870;2023-05-21T07:15:31;15.90;99.90
7117;DHT22;3600;48.568;7.870;2023-05-21T07:17:58;15.90;99.90
7117;DHT22;3600;48.568;7.870;2023-05-21T07:20:25;16.00;99.90
7117;DHT22;3600;48.568;7.870;2023-05-21T07:22:52;16.00;99.90
7117;DHT22;3600;48.568;7.870;2023-05-21T07:25:18;16.20;99.90
7117;DHT22;3600;48.568;7.870;2023-05-21T07:27:45;16.30;99.90
7117;DHT22;3600;48.568;7.870;2023-05-21T07:30:13;16.10;99.90
7117;DHT22;3600;48.568;7.870;2023-05-21T07:32:40;16.10;99.90
7117;DHT22;3600;48.568;7.870;2023-05-21T07:35:07;16.10;99.90
7117;DHT22;3600;48.568;7.870;2023-05-21T07:37:34;16.10;99.90
7117;DHT22;3600;48.568;7.870;2023-05-21T07:40:01;16.40;99.90
7117;DHT22;3600;48.568;7.870;2023-05-21T07:42:28;16.60;99.90
7117;DHT22;3600;48.568;7.870;2023-05-21T07:44:54;16.50;99.90
7117;DHT22;3600;48.568;7.870;2023-05-21T07:47:21;16.40;99.90
7117;DHT22;3600;48.568;7.870;2023-05-21T07:49:48;16.50;99.90
7117;DHT22;3600;48.568;7.870;2023-05-21T07:52:15;16.50;99.90
7117;DHT22;3600;48.568;7.870;2023-05-21T07:54:42;16.60;99.90
7117;DHT22;3600;48.568;7.870;2023-05-21T07:57:09;16.50;99.90
7117;DHT22;3600;48.568;7.870;2023-05-21T07:59:36;16.60;99.90
7117;DHT22;3600;48.568;7.870;2023-05-21T08:02:03;16.60;99.90
7117;DHT22;3600;48.568;7.870;2023-05-21T08:04:30;16.70;99.90
7117;DHT22;3600;48.568;7.870;2023-05-21T08:06:57;16.60;99.90
7117;DHT22;3600;48.568;7.870;2023-05-21T08:09:24;16.70;99.90
7117;DHT22;3600;48.568;7.870;2023-05-21T08:11:51;16.80;99.90
7117;DHT22;3600;48.568;7.870;2023-05-21T08:14:18;17.00;99.90
7117;DHT22;3600;48.568;7.870;2023-05-21T08:16:45;16.90;99.90
7117;DHT22;3600;48.568;7.870;2023-05-21T08:19:12;16.90;99.90
7117;DHT22;3600;48.568;7.870;2023-05-21T08:21:39;17.20;99.90
7117;DHT22;3600;48.568;7.870;2023-05-21T08:24:06;17.30;99.90
7117;DHT22;3600;48.568;7.870;2023-05-21T08:26:33;17.40;99.90
7117;DHT22;3600;48.568;7.870;2023-05-21T08:29:00;17.60;99.90
7117;DHT22;3600;48.568;7.870;2023-05-21T08:31:27;17.60;99.90
7117;DHT22;3600;48.568;7.870;2023-05-21T08:33:54;17.70;99.90
7117;DHT22;3600;48.568;7.870;2023-05-21T08:36:23;17.60;99.90
7117;DHT22;3600;48.568;7.870;2023-05-21T08:38:49;17.70;99.90
7117;DHT22;3600;48.568;7.870;2023-05-21T08:41:17;17.80;99.90
7117;DHT22;3600;48.568;7.870;2023-05-21T08:43:47;17.90;99.90
7117;DHT22;3600;48.568;7.870;2023-05-21T08:46:22;17.70;99.90
7117;DHT22;3600;48.568;7.870;2023-05-21T08:48:51;17.80;99.90
7117;DHT22;3600;48.568;7.870;2023-05-21T08:51:21;17.70;99.90
7117;DHT22;3600;48.568;7.870;2023-05-21T08:53:50;17.80;99.90
7117;DHT22;3600;48.568;7.870;2023-05-21T08:56:17;17.60;99.90
7117;DHT22;3600;48.568;7.870;2023-05-21T08:58:45;17.60;99.90
7117;DHT22;3600;48.568;7.870;2023-05-21T09:01:12;18.00;99.90
7117;DHT22;3600;48.568;7.870;2023-05-21T09:03:40;18.40;99.90
7117;DHT22;3600;48.568;7.870;2023-05-21T09:06:11;17.80;99.90
7117;DHT22;3600;48.568;7.870;2023-05-21T09:08:43;18.10;99.90
7117;DHT22;3600;48.568;7.870;2023-05-21T09:11:13;18.10;99.90
7117;DHT22;3600;48.568;7.870;2023-05-21T09:13:40;18.30;99.90
7117;DHT22;3600;48.568;7.870;2023-05-21T09:16:09;18.40;99.90
7117;DHT22;3600;48.568;7.870;2023-05-21T09:18:36;18.80;99.90
7117;DHT22;3600;48.568;7.870;2023-05-21T09:21:22;19.00;99.90
7117;DHT22;3600;48.568;7.870;2023-05-21T09:23:57;19.10;99.90
7117;DHT22;3600;48.568;7.870;2023-05-21T09:26:25;19.20;99.90
7117;DHT22;3600;48.568;7.870;2023-05-21T09:28:56;19.10;99.90
7117;DHT22;3600;48.568;7.870;2023-05-21T09:31:25;19.20;99.90
7117;DHT22;3600;48.568;7.870;2023-05-21T09:33:52;19.20;99.90
7117;DHT22;3600;48.568;7.870;2023-05-21T09:36:21;19.00;99.90
7117;DHT22;3600;48.568;7.870;2023-05-21T09:38:49;19.20;99.90
7117;DHT22;3600;48.568;7.870;2023-05-21T09:41:18;19.60;99.90
7117;DHT22;3600;48.568;7.870;2023-05-21T09:43:47;19.60;99.90
7117;DHT22;3600;48.568;7.870;2023-05-21T09:46:14;19.80;99.90
7117;DHT22;3600;48.568;7.870;2023-05-21T09:48:42;20.20;99.90
7117;DHT22;3600;48.568;7.870;2023-05-21T09:51:16;20.20;99.90
7117;DHT22;3600;48.568;7.870;2023-05-21T09:53:56;20.40;99.90
7117;DHT22;3600;48.568;7.870;2023-05-21T09:56:27;20.30;99.90
7117;DHT22;3600;48.568;7.870;2023-05-21T09:58:59;20.50;99.90
7117;DHT22;3600;48.568;7.870;2023-05-21T10:01:30;20.60;99.90
7117;DHT22;3600;48.568;7.870;2023-05-21T10:03:58;20.70;99.90
7117;DHT22;3600;48.568;7.870;2023-05-21T10:06:28;20.60;99.90
7117;DHT22;3600;48.568;7.870;2023-05-21T10:08:56;20.70;99.90
7117;DHT22;3600;48.568;7.870;2023-05-21T10:11:26;20.60;99.90
7117;DHT22;3600;48.568;7.870;2023-05-21T10:14:07;20.40;99.90
7117;DHT22;3600;48.568;7.870;2023-05-21T10:16:35;20.20;99.90
7117;DHT22;3600;48.568;7.870;2023-05-21T10:19:03;20.50;99.90
7117;DHT22;3600;48.568;7.870;2023-05-21T10:21:31;20.80;99.90
7117;DHT22;3600;48.568;7.870;2023-05-21T10:24:01;20.40;99.90
7117;DHT22;3600;48.568;7.870;2023-05-21T10:26:29;20.60;99.90
7117;DHT22;3600;48.568;7.870;2023-05-21T10:28:56;21.00;99.90
7117;DHT22;3600;48.568;7.870;2023-05-21T10:31:26;21.20;99.90
7117;DHT22;3600;48.568;7.870;2023-05-21T10:33:54;21.40;99.90
7117;DHT22;3600;48.568;7.870;2023-05-21T10:36:23;21.50;99.90
7117;DHT22;3600;48.568;7.870;2023-05-21T10:38:51;21.60;99.90
7117;DHT22;3600;48.568;7.870;2023-05-21T10:41:20;21.90;99.90
7117;DHT22;3600;48.568;7.870;2023-05-21T10:44:01;22.00;99.90
7117;DHT22;3600;48.568;7.870;2023-05-21T10:46:40;21.90;99.90
7117;DHT22;3600;48.568;7.870;2023-05-21T10:52:08;22.00;99.90
7117;DHT22;3600;48.568;7.870;2023-05-21T10:55:04;22.30;99.90
7117;DHT22;3600;48.568;7.870;2023-05-21T11:00:42;21.90;99.90
7117;DHT22;3600;48.568;7.870;2023-05-21T11:03:13;22.10;99.90
7117;DHT22;3600;48.568;7.870;2023-05-21T11:06:01;22.00;99.90
7117;DHT22;3600;48.568;7.870;2023-05-21T11:08:30;22.00;99.90
7117;DHT22;3600;48.568;7.870;2023-05-21T11:11:02;22.40;99.90
7117;DHT22;3600;48.568;7.870;2023-05-21T11:13:47;22.60;99.90
7117;DHT22;3600;48.568;7.870;2023-05-21T11:16:16;22.70;99.90
7117;DHT22;3600;48.568;7.870;2023-05-21T11:21:21;22.80;99.90
7117;DHT22;3600;48.568;7.870;2023-05-21T11:23:56;22.90;99.90
7117;DHT22;3600;48.568;7.870;2023-05-21T11:29:38;22.40;99.90
7117;DHT22;3600;48.568;7.870;2023-05-21T11:32:13;22.60;99.90
7117;DHT22;3600;48.568;7.870;2023-05-21T11:34:46;22.50;99.90
7117;DHT22;3600;48.568;7.870;2023-05-21T11:37:26;22.80;99.90
7117;DHT22;3600;48.568;7.870;2023-05-21T11:39:57;23.30;99.90
7117;DHT22;3600;48.568;7.870;2023-05-21T11:42:27;23.20;99.90
7117;DHT22;3600;48.568;7.870;2023-05-21T11:45:09;23.50;99.90
7117;DHT22;3600;48.568;7.870;2023-05-21T11:47:36;23.40;99.90
7117;DHT22;3600;48.568;7.870;2023-05-21T11:50:05;23.50;99.90
7117;DHT22;3600;48.568;7.870;2023-05-21T11:52:37;23.40;99.90
7117;DHT22;3600;48.568;7.870;2023-05-21T11:55:08;23.70;99.90
7117;DHT22;3600;48.568;7.870;2023-05-21T11:57:39;23.30;99.90
7117;DHT22;3600;48.568;7.870;2023-05-21T12:00:14;23.70;99.90
7117;DHT22;3600;48.568;7.870;2023-05-21T12:02:47;23.10;99.90
7117;DHT22;3600;48.568;7.870;2023-05-21T12:05:14;23.70;99.90
7117;DHT22;3600;48.568;7.870;2023-05-21T12:07:41;24.10;99.90
7117;DHT22;3600;48.568;7.870;2023-05-21T12:10:08;23.50;99.90
7117;DHT22;3600;48.568;7.870;2023-05-21T12:12:36;23.60;99.90
7117;DHT22;3600;48.568;7.870;2023-05-21T12:15:19;23.60;99.90
7117;DHT22;3600;48.568;7.870;2023-05-21T12:17:55;23.70;99.90
7117;DHT22;3600;48.568;7.870;2023-05-21T12:20:25;24.10;99.90
7117;DHT22;3600;48.568;7.870;2023-05-21T12:22:52;24.60;99.90
7117;DHT22;3600;48.568;7.870;2023-05-21T12:25:20;24.30;99.90
7117;DHT22;3600;48.568;7.870;2023-05-21T12:27:50;24.30;99.90
7117;DHT22;3600;48.568;7.870;2023-05-21T12:30:24;23.80;99.90
7117;DHT22;3600;48.568;7.870;2023-05-21T12:32:51;23.50;99.90
7117;DHT22;3600;48.568;7.870;2023-05-21T12:35:22;23.80;99.90
7117;DHT22;3600;48.568;7.870;2023-05-21T12:37:50;23.70;99.90
7117;DHT22;3600;48.568;7.870;2023-05-21T12:40:17;23.70;99.90
7117;DHT22;3600;48.568;7.870;2023-05-21T12:42:45;23.70;99.90
7117;DHT22;3600;48.568;7.870;2023-05-21T12:45:12;23.70;99.90
7117;DHT22;3600;48.568;7.870;2023-05-21T12:47:39;24.00;99.90
7117;DHT22;3600;48.568;7.870;2023-05-21T12:50:09;23.80;99.90
7117;DHT22;3600;48.568;7.870;2023-05-21T12:52:39;24.10;99.90
7117;DHT22;3600;48.568;7.870;2023-05-21T12:55:08;24.20;99.90
7117;DHT22;3600;48.568;7.870;2023-05-21T12:57:38;24.70;99.90
7117;DHT22;3600;48.568;7.870;2023-05-21T13:00:08;24.80;99.90
7117;DHT22;3600;48.568;7.870;2023-05-21T13:02:42;24.40;99.90
7117;DHT22;3600;48.568;7.870;2023-05-21T13:05:15;24.40;99.90
7117;DHT22;3600;48.568;7.870;2023-05-21T13:07:46;24.40;99.90
7117;DHT22;3600;48.568;7.870;2023-05-21T13:10:14;24.60;99.90
7117;DHT22;3600;48.568;7.870;2023-05-21T13:12:42;24.70;99.90
7117;DHT22;3600;48.568;7.870;2023-05-21T13:15:10;24.70;99.90
7117;DHT22;3600;48.568;7.870;2023-05-21T13:17:37;24.40;99.90
7117;DHT22;3600;48.568;7.870;2023-05-21T13:20:07;24.60;99.90
7117;DHT22;3600;48.568;7.870;2023-05-21T13:22:37;25.30;99.90
7117;DHT22;3600;48.568;7.870;2023-05-21T13:25:18;24.60;99.90
7117;DHT22;3600;48.568;7.870;2023-05-21T13:27:47;24.90;99.90
7117;DHT22;3600;48.568;7.870;2023-05-21T13:30:15;24.80;99.90
7117;DHT22;3600;48.568;7.870;2023-05-21T13:32:42;25.30;99.90
7117;DHT22;3600;48.568;7.870;2023-05-21T13:35:10;25.60;99.90
7117;DHT22;3600;48.568;7.870;2023-05-21T13:37:38;25.40;99.90
7117;DHT22;3600;48.568;7.870;2023-05-21T13:40:08;25.60;99.90
7117;DHT22;3600;48.568;7.870;2023-05-21T13:42:37;25.90;99.90
7117;DHT22;3600;48.568;7.870;2023-05-21T13:45:05;25.70;99.90
7117;DHT22;3600;48.568;7.870;2023-05-21T13:47:32;25.30;99.90
7117;DHT22;3600;48.568;7.870;2023-05-21T13:50:02;25.20;99.90
7117;DHT22;3600;48.568;7.870;2023-05-21T13:52:29;25.50;99.90
7117;DHT22;3600;48.568;7.870;2023-05-21T13:54:56;25.20;99.90
7117;DHT22;3600;48.568;7.870;2023-05-21T13:57:23;25.20;99.90
7117;DHT22;3600;48.568;7.870;2023-05-21T13:59:52;25.50;99.90
7117;DHT22;3600;48.568;7.870;2023-05-21T14:02:19;25.40;99.90
7117;DHT22;3600;48.568;7.870;2023-05-21T14:04:46;25.30;99.90
7117;DHT22;3600;48.568;7.870;2023-05-21T14:07:13;25.30;99.90
7117;DHT22;3600;48.568;7.870;2023-05-21T14:09:40;25.50;99.90
7117;DHT22;3600;48.568;7.870;2023-05-21T14:12:08;25.70;99.90
7117;DHT22;3600;48.568;7.870;2023-05-21T14:14:35;25.70;99.90
7117;DHT22;3600;48.568;7.870;2023-05-21T14:17:01;25.30;99.90
7117;DHT22;3600;48.568;7.870;2023-05-21T14:19:28;25.30;99.90
7117;DHT22;3600;48.568;7.870;2023-05-21T14:21:56;25.50;99.90
7117;DHT22;3600;48.568;7.870;2023-05-21T14:24:22;25.50;99.70
7117;DHT22;3600;48.568;7.870;2023-05-21T14:26:49;25.60;99.40
7117;DHT22;3600;48.568;7.870;2023-05-21T14:29:16;25.40;99.50
7117;DHT22;3600;48.568;7.870;2023-05-21T14:31:43;25.10;99.80
7117;DHT22;3600;48.568;7.870;2023-05-21T14:34:11;25.80;99.90
7117;DHT22;3600;48.568;7.870;2023-05-21T14:36:37;25.80;99.70
7117;DHT22;3600;48.568;7.870;2023-05-21T14:39:04;25.50;98.90
7117;DHT22;3600;48.568;7.870;2023-05-21T14:41:37;25.50;99.20
7117;DHT22;3600;48.568;7.870;2023-05-21T14:44:04;25.80;99.30
7117;DHT22;3600;48.568;7.870;2023-05-21T14:46:31;26.10;99.90
7117;DHT22;3600;48.568;7.870;2023-05-21T14:48:58;26.10;99.10
7117;DHT22;3600;48.568;7.870;2023-05-21T14:51:26;26.40;97.80
7117;DHT22;3600;48.568;7.870;2023-05-21T14:53:52;25.70;98.60
7117;DHT22;3600;48.568;7.870;2023-05-21T14:56:19;25.80;98.70
7117;DHT22;3600;48.568;7.870;2023-05-21T14:58:47;26.30;98.80
7117;DHT22;3600;48.568;7.870;2023-05-21T15:01:14;26.10;98.80
7117;DHT22;3600;48.568;7.870;2023-05-21T15:03:41;26.20;97.90
7117;DHT22;3600;48.568;7.870;2023-05-21T15:06:08;25.70;98.30
7117;DHT22;3600;48.568;7.870;2023-05-21T15:08:35;25.60;99.20
7117;DHT22;3600;48.568;7.870;2023-05-21T15:11:02;26.30;98.10
7117;DHT22;3600;48.568;7.870;2023-05-21T15:13:29;26.30;98.40
7117;DHT22;3600;48.568;7.870;2023-05-21T15:15:56;26.80;98.50
7117;DHT22;3600;48.568;7.870;2023-05-21T15:18:23;26.60;97.80
7117;DHT22;3600;48.568;7.870;2023-05-21T15:20:50;26.20;98.20
7117;DHT22;3600;48.568;7.870;2023-05-21T15:23:17;26.20;97.90
7117;DHT22;3600;48.568;7.870;2023-05-21T15:25:46;26.30;98.80
7117;DHT22;3600;48.568;7.870;2023-05-21T15:28:15;26.80;97.60
7117;DHT22;3600;48.568;7.870;2023-05-21T15:30:42;26.50;98.30
7117;DHT22;3600;48.568;7.870;2023-05-21T15:33:08;26.50;98.20
7117;DHT22;3600;48.568;7.870;2023-05-21T15:35:35;26.80;98.30
7117;DHT22;3600;48.568;7.870;2023-05-21T15:38:03;26.40;99.00
7117;DHT22;3600;48.568;7.870;2023-05-21T15:40:31;26.20;99.10
7117;DHT22;3600;48.568;7.870;2023-05-21T15:42:58;26.40;98.70
7117;DHT22;3600;48.568;7.870;2023-05-21T15:45:24;26.00;98.60
7117;DHT22;3600;48.568;7.870;2023-05-21T15:47:51;26.00;98.90
7117;DHT22;3600;48.568;7.870;2023-05-21T15:50:18;25.90;98.90
7117;DHT22;3600;48.568;7.870;2023-05-21T15:52:45;26.10;98.70
7117;DHT22;3600;48.568;7.870;2023-05-21T15:55:12;26.00;99.40
7117;DHT22;3600;48.568;7.870;2023-05-21T15:57:39;26.10;99.00
7117;DHT22;3600;48.568;7.870;2023-05-21T16:00:07;25.90;99.60
7117;DHT22;3600;48.568;7.870;2023-05-21T16:02:35;25.80;98.90
7117;DHT22;3600;48.568;7.870;2023-05-21T16:05:02;25.70;99.30
7117;DHT22;3600;48.568;7.870;2023-05-21T16:07:29;25.40;99.40
7117;DHT22;3600;48.568;7.870;2023-05-21T16:09:56;25.30;98.60
7117;DHT22;3600;48.568;7.870;2023-05-21T16:12:22;25.30;98.80
7117;DHT22;3600;48.568;7.870;2023-05-21T16:14:49;25.30;98.90
7117;DHT22;3600;48.568;7.870;2023-05-21T16:17:17;25.40;99.50
7117;DHT22;3600;48.568;7.870;2023-05-21T16:19:45;25.00;98.50
7117;DHT22;3600;48.568;7.870;2023-05-21T16:22:13;24.80;99.20
7117;DHT22;3600;48.568;7.870;2023-05-21T16:24:39;24.80;99.00
7117;DHT22;3600;48.568;7.870;2023-05-21T16:27:06;25.30;99.00
7117;DHT22;3600;48.568;7.870;2023-05-21T16:29:33;25.30;99.10
7117;DHT22;3600;48.568;7.870;2023-05-21T16:32:00;25.40;98.40